Time;durP1;ratioP1;P1;durP2;ratioP2;P2;SDS_P1;SDS_P2;PMS_P1;PMS_P2;Temp;Humidity;BMP_temperature;BMP_pressure;BME280_temperature;BME280_humidity;BME280_pressure;Samples;Min_cycle;Max_cycle;Signal;HPM_P1;HPM_P2
2022/03/06 00:00:39;;;;;;;;;;;;;;;16.69;54.96;102638.22;5017653;28;20072;-79
2022/03/06 00:03:05;;;;;;;;;;;;;;;16.69;54.74;102633.00;4999198;28;19921;-78
2022/03/06 00:05:30;;;;;;;;;;;;;;;16.69;54.89;102630.41;5019601;28;19921;-78
2022/03/06 00:07:56;;;;;;;;;;;;;;;16.72;55.03;102635.66;5021798;28;19924;-78
2022/03/06 00:10:22;;;;;;;;;;;;;;;16.71;54.74;102636.53;5028159;28;19926;-77
2022/03/06 00:12:47;;;;;;;;;;;;;;;16.71;54.67;102634.81;5017758;28;20004;-78
2022/03/06 00:15:12;;;;;;;;;;;;;;;16.73;54.52;102635.72;5001391;28;19941;-78
2022/03/06 00:17:37;;;;;;;;;;;;;;;16.70;54.76;102640.84;5018724;28;20323;-78
2022/03/06 00:20:07;;;;;;;;;;;;;;;16.72;54.60;102643.47;5022253;28;19956;-78
2022/03/06 00:22:33;;;;;;;;;;;;;;;16.72;54.77;102639.16;5019522;28;20371;-78
2022/03/06 00:24:59;;;;;;;;;;;;;;;16.73;54.24;102637.44;5020748;28;20063;-78
2022/03/06 00:27:24;;;;;;;;;;;;;;;16.74;54.49;102646.97;5007754;28;19929;-78
2022/03/06 00:29:49;;;;;;;;;;;;;;;16.75;54.29;102651.34;4998324;28;19972;-78
2022/03/06 00:32:15;;;;;;;;;;;;;;;16.72;54.37;102649.53;4999687;28;19925;-78
2022/03/06 00:34:40;;;;;;;;;;;;;;;16.74;54.12;102652.19;5021499;28;19945;-78
2022/03/06 00:37:05;;;;;;;;;;;;;;;16.73;54.05;102643.50;5019830;28;20326;-78
2022/03/06 00:39:30;;;;;;;;;;;;;;;16.75;53.87;102651.34;5018551;28;19916;-79
2022/03/06 00:41:56;;;;;;;;;;;;;;;16.74;54.21;102647.84;5017417;28;19922;-78
2022/03/06 00:44:21;;;;;;;;;;;;;;;16.76;54.24;102653.09;4998803;28;19961;-79
2022/03/06 00:46:47;;;;;;;;;;;;;;;16.74;54.22;102655.66;4981546;28;19933;-78
2022/03/06 00:49:12;;;;;;;;;;;;;;;16.73;54.12;102656.50;5028544;28;19955;-78
2022/03/06 00:51:38;;;;;;;;;;;;;;;16.75;53.98;102652.22;5015047;28;19925;-78
2022/03/06 00:54:03;;;;;;;;;;;;;;;16.75;54.03;102664.34;5018271;28;19925;-78
2022/03/06 00:56:29;;;;;;;;;;;;;;;16.77;53.64;102660.94;5028466;28;19928;-78
2022/03/06 00:58:54;;;;;;;;;;;;;;;16.77;53.87;102663.53;4999906;28;20262;-78
2022/03/06 01:01:19;;;;;;;;;;;;;;;16.80;53.38;102663.63;4998713;28;20444;-78
2022/03/06 01:03:44;;;;;;;;;;;;;;;16.80;53.59;102666.22;4982261;28;20077;-78
2022/03/06 01:06:10;;;;;;;;;;;;;;;16.81;53.36;102673.22;4997654;28;19984;-78
2022/03/06 01:08:35;;;;;;;;;;;;;;;16.80;53.42;102674.03;4980624;28;19922;-78
2022/03/06 01:11:02;;;;;;;;;;;;;;;16.80;53.29;102668.84;4991196;28;20359;-78
2022/03/06 01:13:27;;;;;;;;;;;;;;;16.82;53.28;102674.09;5016540;28;19952;-79
2022/03/06 01:15:53;;;;;;;;;;;;;;;16.82;53.42;102671.47;5027593;28;19921;-79
2022/03/06 01:18:20;;;;;;;;;;;;;;;16.82;53.23;102676.69;5036124;28;19917;-78
2022/03/06 01:20:45;;;;;;;;;;;;;;;16.83;53.11;102676.72;4990804;28;20386;-79
2022/03/06 01:23:10;;;;;;;;;;;;;;;16.84;53.20;102683.66;5000638;28;19965;-79
2022/03/06 01:25:36;;;;;;;;;;;;;;;16.86;53.24;102688.91;5017690;28;20015;-79
2022/03/06 01:28:02;;;;;;;;;;;;;;;16.85;52.87;102685.44;5021180;28;19928;-79
2022/03/06 01:30:27;;;;;;;;;;;;;;;16.83;53.09;102689.72;5007999;28;19972;-78
2022/03/06 01:32:53;;;;;;;;;;;;;;;16.85;52.83;102690.63;4998675;28;19918;-78
2022/03/06 01:35:19;;;;;;;;;;;;;;;16.85;52.69;102693.25;5007049;28;20012;-78
2022/03/06 01:37:45;;;;;;;;;;;;;;;16.88;52.64;102697.63;4998499;28;19917;-79
2022/03/06 01:40:11;;;;;;;;;;;;;;;16.89;52.77;102695.91;5015694;28;20279;-79
2022/03/06 01:42:43;;;;;;;;;;;;;;;16.91;52.54;102694.22;5001926;28;19976;-79
2022/03/06 01:45:09;;;;;;;;;;;;;;;16.88;52.26;102694.16;4996772;28;19918;-79
2022/03/06 01:47:47;;;;;;;;;;;;;;;16.92;52.50;102698.56;4980254;28;20359;-79
2022/03/06 01:50:14;;;;;;;;;;;;;;;16.95;52.31;102701.25;5005953;28;19964;-78
2022/03/06 01:52:40;;;;;;;;;;;;;;;16.94;52.44;102695.16;5035798;28;20012;-78
2022/03/06 01:55:05;;;;;;;;;;;;;;;16.94;52.15;102695.16;5026487;28;19964;-78
2022/03/06 01:57:31;;;;;;;;;;;;;;;16.97;52.17;102699.56;4997348;28;19918;-79
2022/03/06 01:59:57;;;;;;;;;;;;;;;16.97;52.26;102703.03;5020467;28;20200;-79
2022/03/06 02:02:23;;;;;;;;;;;;;;;16.97;52.28;102695.22;5018873;28;20386;-79
2022/03/06 02:04:48;;;;;;;;;;;;;;;16.98;51.91;102698.69;5018952;28;19918;-79
2022/03/06 02:07:13;;;;;;;;;;;;;;;16.99;52.15;102698.75;4990530;28;19925;-79
2022/03/06 02:09:38;;;;;;;;;;;;;;;17.00;52.02;102695.28;4995452;28;20007;-79
2022/03/06 02:12:23;;;;;;;;;;;;;;;16.97;51.96;102697.81;4980608;28;20024;-78
2022/03/06 02:14:52;;;;;;;;;;;;;;;17.00;51.79;102699.63;4996010;28;19965;-78
2022/03/06 02:17:18;;;;;;;;;;;;;;;16.99;52.15;102706.56;5015337;28;20372;-78
2022/03/06 02:19:50;;;;;;;;;;;;;;;16.97;51.88;102696.97;5008625;28;19924;-78
2022/03/06 02:22:15;;;;;;;;;;;;;;;16.99;51.88;102697.88;4995660;28;20344;-78
2022/03/06 02:24:41;;;;;;;;;;;;;;;16.99;51.71;102701.34;4995266;28;19922;-78
2022/03/06 02:27:06;;;;;;;;;;;;;;;17.01;51.67;102702.25;5003937;28;20414;-79
2022/03/06 02:29:31;;;;;;;;;;;;;;;17.02;51.77;102701.41;5032939;28;20280;-78
2022/03/06 02:31:58;;;;;;;;;;;;;;;17.03;51.56;102697.97;5022745;28;20284;-78
2022/03/06 02:34:23;;;;;;;;;;;;;;;17.01;51.56;102696.19;5015107;28;19957;-78
2022/03/06 02:36:48;;;;;;;;;;;;;;;17.02;51.50;102695.31;4997423;28;19921;-78
2022/03/06 02:39:14;;;;;;;;;;;;;;;17.03;51.70;102700.56;4997616;28;19917;-78
2022/03/06 02:41:39;;;;;;;;;;;;;;;17.02;51.62;102693.59;5004909;28;19928;-78
2022/03/06 02:44:04;;;;;;;;;;;;;;;17.02;51.38;102693.59;5017208;28;20323;-79
2022/03/06 02:46:30;;;;;;;;;;;;;;;17.05;51.32;102687.63;5010874;28;20296;-79
2022/03/06 02:48:55;;;;;;;;;;;;;;;17.05;51.52;102688.47;4994791;28;19940;-78
2022/03/06 02:51:20;;;;;;;;;;;;;;;17.06;51.43;102699.75;4996331;28;19965;-79
2022/03/06 02:53:46;;;;;;;;;;;;;;;17.06;51.59;102689.34;4997732;28;19926;-79
2022/03/06 02:56:11;;;;;;;;;;;;;;;17.06;51.49;102690.22;4997355;28;19921;-78
2022/03/06 02:58:36;;;;;;;;;;;;;;;17.06;51.11;102692.81;5013846;28;19914;-78
2022/03/06 03:01:02;;;;;;;;;;;;;;;17.05;51.39;102693.69;4985105;28;19972;-78
2022/03/06 03:03:27;;;;;;;;;;;;;;;17.06;50.89;102703.22;4994570;28;20004;-78
2022/03/06 03:05:52;;;;;;;;;;;;;;;17.08;51.37;102702.41;4995016;28;19922;-78
2022/03/06 03:08:18;;;;;;;;;;;;;;;17.08;51.22;102703.28;4978171;28;19918;-78
2022/03/06 03:10:43;;;;;;;;;;;;;;;17.08;51.10;102700.69;4978048;28;19922;-78
2022/03/06 03:13:08;;;;;;;;;;;;;;;17.08;50.79;102705.88;4978367;28;19955;-78
2022/03/06 03:15:34;;;;;;;;;;;;;;;17.07;51.05;102709.31;4980244;28;20364;-79
2022/03/06 03:17:59;;;;;;;;;;;;;;;17.08;51.18;102705.00;5015038;28;20371;-78
2022/03/06 03:20:24;;;;;;;;;;;;;;;17.06;50.96;102703.22;4997093;28;20008;-78
2022/03/06 03:22:49;;;;;;;;;;;;;;;17.07;51.13;102704.09;5010551;28;19968;-78
2022/03/06 03:25:15;;;;;;;;;;;;;;;17.06;50.93;102704.97;5019377;28;19940;-79
2022/03/06 03:27:40;;;;;;;;;;;;;;;17.08;50.86;102703.28;5031362;28;19925;-79
2022/03/06 03:30:07;;;;;;;;;;;;;;;17.07;50.81;102698.91;4997660;28;20332;-79
2022/03/06 03:32:32;;;;;;;;;;;;;;;17.08;51.16;102702.41;5013114;28;19934;-79
2022/03/06 03:34:57;;;;;;;;;;;;;;;17.08;51.11;102702.41;5014440;28;19982;-79
2022/03/06 03:37:23;;;;;;;;;;;;;;;17.06;50.80;102699.75;5019084;28;19914;-79
2022/03/06 03:39:48;;;;;;;;;;;;;;;17.06;50.95;102698.03;5008902;28;20070;-79
2022/03/06 03:42:13;;;;;;;;;;;;;;;17.06;51.08;102699.75;5037113;28;19921;-78
2022/03/06 03:44:38;;;;;;;;;;;;;;;17.06;50.97;102703.22;5019274;28;19959;-78
2022/03/06 03:47:04;;;;;;;;;;;;;;;17.07;51.03;102701.50;5019191;28;19940;-78
2022/03/06 03:49:29;;;;;;;;;;;;;;;17.08;50.91;102702.41;4999305;28;19921;-78
2022/03/06 03:51:54;;;;;;;;;;;;;;;17.06;50.64;102705.84;4980988;28;19980;-78
2022/03/06 03:54:20;;;;;;;;;;;;;;;17.07;50.80;102701.50;5015177;28;20284;-79
2022/03/06 03:56:45;;;;;;;;;;;;;;;17.07;50.68;102704.09;5016546;28;19924;-78
2022/03/06 03:59:10;;;;;;;;;;;;;;;17.05;50.64;102709.28;5008614;28;19975;-78
2022/03/06 04:01:35;;;;;;;;;;;;;;;17.04;50.67;102704.03;5040439;28;19967;-78
2022/03/06 04:04:01;;;;;;;;;;;;;;;17.05;50.70;102703.22;5038883;28;19935;-78
2022/03/06 04:06:26;;;;;;;;;;;;;;;17.05;50.53;102705.81;5040051;28;19923;-78
2022/03/06 04:08:51;;;;;;;;;;;;;;;17.05;50.45;102705.81;5025204;28;19960;-78
2022/03/06 04:11:17;;;;;;;;;;;;;;;17.05;50.34;102698.03;5008873;28;19948;-78
2022/03/06 04:13:43;;;;;;;;;;;;;;;17.05;50.45;102711.91;5024503;28;19966;-79
2022/03/06 04:16:08;;;;;;;;;;;;;;;17.06;50.55;102720.56;5025247;28;20375;-78
2022/03/06 04:18:33;;;;;;;;;;;;;;;17.05;50.44;102719.69;5008473;28;19964;-78
2022/03/06 04:21:00;;;;;;;;;;;;;;;17.06;50.42;102720.56;5004981;28;20209;-78
2022/03/06 04:23:26;;;;;;;;;;;;;;;17.06;50.32;102721.44;5024135;28;19976;-80
2022/03/06 04:25:51;;;;;;;;;;;;;;;17.05;50.34;102726.63;5024427;28;19988;-81
2022/03/06 04:28:16;;;;;;;;;;;;;;;17.03;50.09;102723.97;5027103;28;19917;-81
2022/03/06 04:30:42;;;;;;;;;;;;;;;17.03;50.35;102729.19;5029318;28;19925;-81
2022/03/06 04:33:07;;;;;;;;;;;;;;;17.05;50.09;102732.69;5044654;28;19917;-81
2022/03/06 04:35:33;;;;;;;;;;;;;;;17.05;50.26;102734.44;5015395;28;19921;-81
2022/03/06 04:37:58;;;;;;;;;;;;;;;17.03;50.07;102731.78;5027898;28;19920;-81
2022/03/06 04:40:23;;;;;;;;;;;;;;;17.04;50.32;102735.25;5010277;28;19917;-81
2022/03/06 04:42:48;;;;;;;;;;;;;;;17.03;50.25;102739.59;5010589;28;19921;-80
2022/03/06 04:45:14;;;;;;;;;;;;;;;17.04;50.19;102746.53;5026083;28;19913;-80
2022/03/06 04:47:39;;;;;;;;;;;;;;;17.03;50.17;102741.31;5009803;28;19936;-80
2022/03/06 04:50:04;;;;;;;;;;;;;;;17.04;49.96;102751.75;5019469;28;19982;-80
2022/03/06 04:52:30;;;;;;;;;;;;;;;17.04;50.11;102745.66;5061817;28;19924;-80
2022/03/06 04:54:55;;;;;;;;;;;;;;;17.03;49.89;102743.91;5027079;28;19960;-80
2022/03/06 04:57:20;;;;;;;;;;;;;;;17.03;49.99;102744.78;5043534;28;19913;-80
2022/03/06 04:59:46;;;;;;;;;;;;;;;17.03;50.04;102744.78;5027969;28;19928;-80
2022/03/06 05:02:11;;;;;;;;;;;;;;;17.02;49.74;102740.41;5059767;28;19984;-80
2022/03/06 05:04:36;;;;;;;;;;;;;;;17.02;49.96;102735.22;5034953;28;19917;-80
2022/03/06 05:07:02;;;;;;;;;;;;;;;17.02;49.85;102740.41;5029070;28;20322;-80
2022/03/06 05:09:27;;;;;;;;;;;;;;;17.02;49.82;102745.63;5030283;28;19928;-81
2022/03/06 05:11:52;;;;;;;;;;;;;;;17.03;49.81;102751.72;5008084;28;19922;-81
2022/03/06 05:14:18;;;;;;;;;;;;;;;17.02;49.69;102753.41;5036683;28;19924;-81
2022/03/06 05:16:43;;;;;;;;;;;;;;;17.02;49.80;102747.34;5038740;28;19987;-81
2022/03/06 05:19:09;;;;;;;;;;;;;;;17.02;49.73;102758.63;5024810;28;19921;-81
2022/03/06 05:21:35;;;;;;;;;;;;;;;17.02;49.54;102758.63;5023753;28;19921;-81
2022/03/06 05:24:01;;;;;;;;;;;;;;;17.01;49.57;102762.09;5024473;28;20328;-80
2022/03/06 05:26:26;;;;;;;;;;;;;;;17.00;49.46;102762.91;5046004;28;19920;-81
2022/03/06 05:28:51;;;;;;;;;;;;;;;17.00;49.42;102765.50;5045139;28;19913;-81
2022/03/06 05:31:18;;;;;;;;;;;;;;;17.00;49.48;102770.72;5010662;28;19928;-81
2022/03/06 05:33:43;;;;;;;;;;;;;;;17.00;49.63;102770.72;5010264;28;20007;-81
2022/03/06 05:36:08;;;;;;;;;;;;;;;17.00;49.66;102772.44;5036492;28;19967;-78
2022/03/06 05:38:34;;;;;;;;;;;;;;;17.00;49.79;102775.91;5025714;28;20406;-78
2022/03/06 05:40:59;;;;;;;;;;;;;;;17.00;49.41;102775.91;5026755;28;19971;-78
2022/03/06 05:43:24;;;;;;;;;;;;;;;16.98;49.40;102777.59;5027454;28;19920;-78
2022/03/06 05:45:51;;;;;;;;;;;;;;;16.99;49.41;102779.38;5031726;28;19913;-78
2022/03/06 05:48:17;;;;;;;;;;;;;;;16.99;49.24;102784.56;5009215;28;19925;-80
2022/03/06 05:50:43;;;;;;;;;;;;;;;16.98;49.36;102781.94;5024490;28;19913;-81
2022/03/06 05:53:09;;;;;;;;;;;;;;;16.99;49.34;102789.78;5025523;28;19925;-81
2022/03/06 05:55:34;;;;;;;;;;;;;;;16.99;49.21;102796.72;5018367;28;20401;-81
2022/03/06 05:58:00;;;;;;;;;;;;;;;16.99;49.32;102791.50;5030689;28;19917;-81
2022/03/06 06:00:25;;;;;;;;;;;;;;;16.98;49.34;102793.19;5025388;28;19991;-80
2022/03/06 06:02:50;;;;;;;;;;;;;;;16.99;49.04;102799.31;5045594;28;19917;-78
2022/03/06 06:05:15;;;;;;;;;;;;;;;16.98;49.10;102803.59;5027270;28;19923;-78
2022/03/06 06:07:41;;;;;;;;;;;;;;;16.98;48.96;102802.72;5041735;28;19928;-78
2022/03/06 06:10:06;;;;;;;;;;;;;;;16.97;49.21;102811.41;5009859;28;19921;-78
2022/03/06 06:12:32;;;;;;;;;;;;;;;16.97;49.17;102807.06;5023041;28;19923;-78
2022/03/06 06:14:57;;;;;;;;;;;;;;;16.97;48.98;102814.88;5020290;28;19967;-78
2022/03/06 06:17:22;;;;;;;;;;;;;;;16.98;48.93;102818.34;5003807;28;19927;-78
2022/03/06 06:19:47;;;;;;;;;;;;;;;16.97;48.99;102820.06;5010943;28;19925;-78
2022/03/06 06:22:13;;;;;;;;;;;;;;;16.99;48.87;102830.53;5016459;28;19921;-78
2022/03/06 06:24:38;;;;;;;;;;;;;;;16.98;48.83;102829.63;5007232;28;19971;-78
2022/03/06 06:27:03;;;;;;;;;;;;;;;16.98;48.83;102832.22;5002579;28;19921;-78
2022/03/06 06:29:29;;;;;;;;;;;;;;;16.98;48.81;102836.53;5003216;28;20355;-78
2022/03/06 06:31:55;;;;;;;;;;;;;;;16.98;48.63;102845.22;5035681;28;20381;-78
2022/03/06 06:34:20;;;;;;;;;;;;;;;16.97;48.86;102851.28;5022408;28;19940;-78
2022/03/06 06:36:46;;;;;;;;;;;;;;;16.99;48.71;102846.13;5037853;28;19967;-78
2022/03/06 06:39:12;;;;;;;;;;;;;;;16.98;48.67;102845.22;5032958;28;19917;-78
2022/03/06 06:41:38;;;;;;;;;;;;;;;16.97;48.51;102850.41;5019489;28;19921;-78
2022/03/06 06:44:03;;;;;;;;;;;;;;;16.97;48.76;102846.06;5006666;28;19921;-78
2022/03/06 06:46:28;;;;;;;;;;;;;;;16.95;48.27;102857.28;5030023;28;20305;-78
2022/03/06 06:48:54;;;;;;;;;;;;;;;16.94;48.72;102850.31;5019941;28;20383;-79
2022/03/06 06:51:25;;;;;;;;;;;;;;;16.96;48.58;102853.84;5007407;28;20012;-78
2022/03/06 06:53:51;;;;;;;;;;;;;;;16.96;48.65;102865.13;5025174;28;20398;-78
2022/03/06 06:56:16;;;;;;;;;;;;;;;16.98;48.87;102862.56;5028818;28;19931;-79
2022/03/06 06:58:41;;;;;;;;;;;;;;;16.99;48.76;102864.34;5031749;28;20296;-80
2022/03/06 07:01:07;;;;;;;;;;;;;;;17.01;48.79;102868.72;5042832;28;19920;-78
2022/03/06 07:03:32;;;;;;;;;;;;;;;17.01;48.79;102868.72;5035778;28;19945;-79
2022/03/06 07:05:58;;;;;;;;;;;;;;;17.06;48.76;102879.25;5038748;28;19984;-80
2022/03/06 07:08:24;;;;;;;;;;;;;;;17.08;48.54;102874.97;5049582;28;19916;-79
2022/03/06 07:10:51;;;;;;;;;;;;;;;17.11;48.55;102881.94;5030047;28;19918;-79
2022/03/06 07:13:16;;;;;;;;;;;;;;;17.12;48.45;102883.72;5026763;28;19918;-79
2022/03/06 07:15:42;;;;;;;;;;;;;;;17.13;48.50;102894.16;5037311;28;20016;-78
2022/03/06 07:18:07;;;;;;;;;;;;;;;17.14;48.28;102890.72;5032597;28;19925;-78
2022/03/06 07:20:32;;;;;;;;;;;;;;;17.16;48.36;102895.94;5013056;28;19929;-78
2022/03/06 07:22:58;;;;;;;;;;;;;;;17.18;48.34;102902.06;5034325;28;19992;-79
2022/03/06 07:25:23;;;;;;;;;;;;;;;17.18;48.21;102902.97;5029086;28;19943;-78
2022/03/06 07:27:48;;;;;;;;;;;;;;;17.23;48.35;102911.75;5015204;28;19918;-78
2022/03/06 07:30:14;;;;;;;;;;;;;;;17.26;48.39;102913.56;5030944;28;19960;-79
2022/03/06 07:33:00;;;;;;;;;;;;;;;17.27;48.19;102917.94;5033410;28;20298;-79
2022/03/06 07:35:25;;;;;;;;;;;;;;;17.30;48.04;102917.13;5033143;28;19917;-78
2022/03/06 07:37:50;;;;;;;;;;;;;;;17.30;48.07;102919.72;5033577;28;19917;-79
2022/03/06 07:40:17;;;;;;;;;;;;;;;17.30;48.18;102927.53;5019826;28;19924;-80
2022/03/06 07:42:42;;;;;;;;;;;;;;;17.31;47.88;102930.19;5051186;28;19932;-78
2022/03/06 07:45:08;;;;;;;;;;;;;;;17.32;48.04;102929.31;5029376;28;19928;-78
2022/03/06 07:47:35;;;;;;;;;;;;;;;17.35;47.87;102928.50;5014525;28;20384;-78
2022/03/06 07:50:00;;;;;;;;;;;;;;;17.38;47.89;102932.09;5036351;28;20383;-78
2022/03/06 07:52:26;;;;;;;;;;;;;;;17.40;47.91;102933.00;5011588;28;20005;-78
2022/03/06 07:54:51;;;;;;;;;;;;;;;17.46;47.59;102937.47;5039725;28;19951;-79
2022/03/06 07:57:16;;;;;;;;;;;;;;;17.49;47.72;102927.16;5038680;28;20020;-79
2022/03/06 07:59:42;;;;;;;;;;;;;;;17.53;47.37;102933.28;5021904;28;20019;-79
2022/03/06 08:02:07;;;;;;;;;;;;;;;17.64;47.30;102932.72;5022264;28;19920;-78
2022/03/06 08:04:32;;;;;;;;;;;;;;;17.79;46.83;102936.50;5023658;28;19944;-78
2022/03/06 08:06:58;;;;;;;;;;;;;;;17.84;46.62;102933.19;5019709;28;19921;-77
2022/03/06 08:09:26;;;;;;;;;;;;;;;17.87;49.63;102930.66;5025749;28;19917;-79
2022/03/06 08:11:52;;;;;;;;;;;;;;;-10.48;49.86;102940.53;5029557;28;19944;-79
2022/03/06 08:14:17;;;;;;;;;;;;;;;17.58;49.59;102942.97;5043066;28;20003;-79
2022/03/06 08:16:43;;;;;;;;;;;;;;;17.66;49.22;102950.97;5026122;28;19914;-79
2022/03/06 08:19:08;;;;;;;;;;;;;;;17.69;49.41;102940.63;5024553;28;19928;-79
2022/03/06 08:21:33;;;;;;;;;;;;;;;17.54;49.87;102950.69;5027248;28;20280;-80
2022/03/06 08:27:28;;;;;;;;;;;;;;;17.50;50.14;102959.25;5032068;28;19937;-84
2022/03/06 08:30:12;;;;;;;;;;;;;;;17.52;49.97;102952.38;5016502;28;19933;-80
2022/03/06 08:32:38;;;;;;;;;;;;;;;17.40;50.37;102969.44;5027715;28;19929;-80
2022/03/06 08:35:27;;;;;;;;;;;;;;;17.37;50.61;102965.88;5020350;28;19917;-81
2022/03/06 08:38:11;;;;;;;;;;;;;;;17.40;50.49;102968.56;5022137;28;19973;-82
2022/03/06 08:40:37;;;;;;;;;;;;;;;17.44;50.17;102962.56;5011774;28;19936;-81
2022/03/06 08:43:04;;;;;;;;;;;;;;;17.40;50.37;102963.38;4996944;28;19921;-81
2022/03/06 08:45:31;;;;;;;;;;;;;;;17.36;50.61;102965.00;5030789;28;19921;-81
2022/03/06 08:47:59;;;;;;;;;;;;;;;17.39;50.32;102965.06;5011645;28;20029;-81
2022/03/06 08:50:25;;;;;;;;;;;;;;;17.37;50.20;102971.94;5012398;28;19913;-81
2022/03/06 08:52:50;;;;;;;;;;;;;;;17.36;50.10;102970.19;4971514;29;19986;-81
2022/03/06 08:55:26;;;;;;;;;;;;;;;17.36;49.93;102967.59;4973276;29;19930;-81
2022/03/06 08:57:56;;;;;;;;;;;;;;;17.38;49.84;102965.91;4973006;29;19919;-81
2022/03/06 09:00:22;;;;;;;;;;;;;;;17.36;50.31;102964.13;4964341;29;19938;-81
2022/03/06 09:02:47;;;;;;;;;;;;;;;17.34;49.96;102971.00;4963563;29;19923;-81
2022/03/06 09:05:13;;;;;;;;;;;;;;;17.33;49.80;102970.09;4946969;29;19921;-81
2022/03/06 09:07:39;;;;;;;;;;;;;;;17.33;49.87;102966.63;4963705;29;19925;-80
2022/03/06 09:10:04;;;;;;;;;;;;;;;17.32;49.87;102970.09;4962965;29;19915;-81
2022/03/06 09:12:31;;;;;;;;;;;;;;;17.30;49.94;102967.44;4947030;29;19915;-81
2022/03/06 09:14:56;;;;;;;;;;;;;;;17.29;49.91;102973.50;4948649;29;20329;-81
2022/03/06 09:17:23;;;;;;;;;;;;;;;17.27;49.67;102967.38;4966979;29;19946;-81
2022/03/06 09:19:50;;;;;;;;;;;;;;;17.25;49.78;102963.84;4968325;29;19926;-81
2022/03/06 09:22:20;;;;;;;;;;;;;;;17.24;49.75;102962.94;4952867;29;20022;-81
2022/03/06 09:24:47;;;;;;;;;;;;;;;17.23;49.78;102958.59;5006840;28;19920;-82
2022/03/06 09:27:15;;;;;;;;;;;;;;;17.22;49.73;102962.06;5013581;28;20072;-81
2022/03/06 09:29:42;;;;;;;;;;;;;;;17.19;49.87;102963.69;5014055;28;19997;-82
2022/03/06 09:32:10;;;;;;;;;;;;;;;17.20;49.71;102962.81;5013471;28;19914;-81
2022/03/06 09:34:39;;;;;;;;;;;;;;;17.18;49.80;102967.09;5028629;28;19945;-82
2022/03/06 09:40:12;;;;;;;;;;;;;;;17.18;49.83;102973.22;5014671;28;19943;-82
2022/03/06 09:42:40;;;;;;;;;;;;;;;17.18;49.80;102975.81;5054677;28;19917;-82
2022/03/06 09:48:49;;;;;;;;;;;;;;;17.15;49.82;102973.13;5036956;28;19917;-82
2022/03/06 09:51:50;;;;;;;;;;;;;;;17.15;49.76;102967.03;5031147;28;19905;-83
2022/03/06 10:00:47;;;;;;;;;;;;;;;17.11;50.14;102970.41;4999206;28;19929;-82
2022/03/06 10:07:01;;;;;;;;;;;;;;;17.11;50.42;102978.22;4960285;28;19913;-82
2022/03/06 10:10:05;;;;;;;;;;;;;;;17.12;50.25;102972.19;4919881;29;19922;-82
2022/03/06 10:12:32;;;;;;;;;;;;;;;17.14;50.13;102986.97;4947602;29;19903;-82
2022/03/06 10:15:02;;;;;;;;;;;;;;;17.13;50.20;102981.72;4956812;29;19918;-83
2022/03/06 10:21:04;;;;;;;;;;;;;;;17.14;50.05;102999.13;4957128;29;20013;-82
2022/03/06 10:23:36;;;;;;;;;;;;;;;17.15;50.01;102993.06;4880799;29;19941;-82
2022/03/06 10:26:07;;;;;;;;;;;;;;;17.14;50.16;102993.91;4881249;29;19916;-82
2022/03/06 10:31:52;;;;;;;;;;;;;;;17.15;50.09;103006.06;4889991;29;19946;-81
2022/03/06 10:34:44;;;;;;;;;;;;;;;17.15;49.83;103008.66;4898556;29;19904;-82
2022/03/06 10:37:20;;;;;;;;;;;;;;;17.16;49.97;103007.81;4899430;29;19915;-82
2022/03/06 10:39:48;;;;;;;;;;;;;;;17.15;49.88;103009.53;4899336;29;19920;-82
2022/03/06 10:42:23;;;;;;;;;;;;;;;17.15;50.00;103006.06;4899233;29;19907;-82
2022/03/06 10:45:09;;;;;;;;;;;;;;;17.14;49.96;103000.00;4918227;29;19916;-83
2022/03/06 10:47:49;;;;;;;;;;;;;;;17.14;49.83;103012.13;4929598;29;19930;-83
2022/03/06 10:50:21;;;;;;;;;;;;;;;17.13;49.70;103015.56;4936454;29;19923;-82
2022/03/06 10:55:32;;;;;;;;;;;;;;;17.12;49.51;103004.28;5337413;22;19925;-82
2022/03/06 11:03:37;;;;;;;;;;;;;;;17.12;49.75;103003.41;4201982;26;19929;-83
2022/03/06 11:06:12;;;;;;;;;;;;;;;17.13;49.66;103010.34;5054936;28;19900;-82
2022/03/06 11:14:58;;;;;;;;;;;;;;;17.13;49.40;103003.41;5068194;28;19924;-82
2022/03/06 11:17:27;;;;;;;;;;;;;;;17.13;49.49;103000.81;5067230;28;19924;-82
2022/03/06 11:23:14;;;;;;;;;;;;;;;17.14;49.15;102989.59;5075515;28;20004;-82
2022/03/06 11:29:06;;;;;;;;;;;;;;;17.15;49.09;102986.13;5075220;28;19935;-82
2022/03/06 11:32:03;;;;;;;;;;;;;;;17.16;48.95;102994.81;5071720;28;19984;-82
2022/03/06 11:37:52;;;;;;;;;;;;;;;17.16;48.82;102982.69;5074430;28;19924;-83
2022/03/06 11:43:01;;;;;;;;;;;;;;;17.17;48.55;102981.84;5255492;22;19925;-83
2022/03/06 11:48:34;;;;;;;;;;;;;;;17.17;48.36;102984.44;5033396;28;19923;-83
2022/03/06 11:51:36;;;;;;;;;;;;;;;17.18;48.44;102983.63;5016590;28;20164;-83
2022/03/06 11:54:17;;;;;;;;;;;;;;;17.18;48.55;102985.31;5024516;28;19917;-82
2022/03/06 11:56:50;;;;;;;;;;;;;;;17.19;48.26;102981.91;5026634;28;20288;-83
2022/03/06 11:59:19;;;;;;;;;;;;;;;17.18;48.38;102983.63;5015902;28;19905;-83
2022/03/06 12:01:54;;;;;;;;;;;;;;;17.20;48.43;102975.84;5017578;28;19921;-82
2022/03/06 12:04:22;;;;;;;;;;;;;;;17.20;48.24;102970.63;5035206;28;19906;-83
2022/03/06 12:07:01;;;;;;;;;;;;;;;17.20;48.38;102976.75;5035674;28;20023;-82
2022/03/06 12:12:43;;;;;;;;;;;;;;;17.21;48.21;102962.00;5039693;28;19953;-84
2022/03/06 12:18:16;;;;;;;;;;;;;;;17.21;48.16;102952.47;5040190;28;19956;-82
2022/03/06 12:20:44;;;;;;;;;;;;;;;17.21;47.77;102949.88;5020011;28;19917;-84
2022/03/06 12:23:34;;;;;;;;;;;;;;;17.24;47.85;102943.84;5036982;28;19902;-84
2022/03/06 12:26:01;;;;;;;;;;;;;;;17.23;47.77;102956.00;5022564;28;19991;-84
2022/03/06 12:28:46;;;;;;;;;;;;;;;17.24;47.72;102951.66;5022139;28;19928;-83
2022/03/06 12:31:32;;;;;;;;;;;;;;;17.25;47.40;102961.25;5000270;28;19917;-80
2022/03/06 12:34:18;;;;;;;;;;;;;;;17.25;47.63;102954.31;5017780;28;19918;-83
2022/03/06 12:36:52;;;;;;;;;;;;;;;17.27;47.42;102951.75;5025330;28;19913;-80
2022/03/06 12:39:18;;;;;;;;;;;;;;;17.31;47.36;102953.59;5017746;28;19937;-77
2022/03/06 12:41:43;;;;;;;;;;;;;;;17.34;47.04;102945.84;5020477;28;19937;-79
2022/03/06 12:44:09;;;;;;;;;;;;;;;17.37;46.99;102942.44;5029255;28;19922;-80
2022/03/06 12:46:35;;;;;;;;;;;;;;;17.40;47.05;102950.34;5021153;28;19953;-81
2022/03/06 12:49:01;;;;;;;;;;;;;;;17.42;47.12;102949.53;5030863;28;19977;-79
2022/03/06 12:51:27;;;;;;;;;;;;;;;17.44;47.66;102936.53;5056820;28;19912;-78
2022/03/06 12:53:54;;;;;;;;;;;;;;;17.46;48.11;102943.56;5066111;28;20350;-80
2022/03/06 12:56:30;;;;;;;;;;;;;;;17.48;48.40;102948.78;5071387;28;19944;-78
2022/03/06 13:02:19;;;;;;;;;;;;;;;17.54;48.95;102929.84;5074693;28;19988;-83
2022/03/06 13:04:52;;;;;;;;;;;;;;;17.56;49.09;102930.78;5074834;28;19913;-78
2022/03/06 13:07:45;;;;;;;;;;;;;;;17.59;49.67;102938.63;5067106;28;19956;-79
2022/03/06 13:10:14;;;;;;;;;;;;;;;17.64;49.82;102929.22;5068176;28;19920;-81
2022/03/06 13:12:42;;;;;;;;;;;;;;;17.63;49.97;102930.94;5073182;28;19921;-81
2022/03/06 13:15:27;;;;;;;;;;;;;;;17.64;49.84;102931.84;5056928;28;19919;-81
2022/03/06 13:18:14;;;;;;;;;;;;;;;17.66;50.07;102917.13;5075151;28;19913;-82
2022/03/06 13:24:03;;;;;;;;;;;;;;;17.71;50.42;102918.09;5075887;28;19935;-81
2022/03/06 13:26:31;;;;;;;;;;;;;;;17.73;50.60;102921.63;5079130;28;19923;-81
2022/03/06 13:28:57;;;;;;;;;;;;;;;17.75;50.48;102916.47;5053995;28;19917;-79
2022/03/06 13:31:39;;;;;;;;;;;;;;;17.76;50.61;102913.88;5031864;28;19916;-81
2022/03/06 13:34:07;;;;;;;;;;;;;;;17.77;50.60;102913.06;5045234;28;19917;-78
2022/03/06 13:36:33;;;;;;;;;;;;;;;17.80;50.85;102917.44;5042339;28;19920;-79
2022/03/06 13:45:11;;;;;;;;;;;;;;;17.87;51.09;102915.03;5033677;28;19945;-80
2022/03/06 13:48:00;;;;;;;;;;;;;;;17.89;51.00;102912.47;5018873;28;19920;-84
2022/03/06 13:50:26;;;;;;;;;;;;;;;17.90;50.99;102909.03;5022912;28;19914;-79
2022/03/06 13:52:53;;;;;;;;;;;;;;;17.91;51.21;102910.78;5021117;28;20000;-79
2022/03/06 13:55:20;;;;;;;;;;;;;;;17.95;51.14;102903.91;5003984;28;19920;-79